createdAt,value
2023-02-18T00:00:23.562Z,66.70
2023-02-18T00:01:56.825Z,66.70
2023-02-18T00:03:31.038Z,66.80
2023-02-18T00:05:06.336Z,66.90
2023-02-18T00:06:39.559Z,66.90
2023-02-18T00:08:11.770Z,66.80
2023-02-18T00:09:44.904Z,66.90
2023-02-18T00:11:18.968Z,66.90
2023-02-18T00:12:52.151Z,67.00
2023-02-18T00:14:25.412Z,67.00
2023-02-18T00:16:02.730Z,66.90
2023-02-18T00:17:40.293Z,67.10
2023-02-18T00:19:22.971Z,67.10
2023-02-18T00:21:01.291Z,67.20
2023-02-18T00:22:38.238Z,67.20
2023-02-18T00:24:18.030Z,67.20
2023-02-18T00:26:04.111Z,67.20
2023-02-18T00:27:42.508Z,67.30
2023-02-18T00:29:21.098Z,67.30
2023-02-18T00:31:00.884Z,67.30
2023-02-18T00:32:39.738Z,67.40
2023-02-18T00:34:17.117Z,67.50
2023-02-18T00:35:53.609Z,67.50
2023-02-18T00:37:35.548Z,67.60
2023-02-18T00:39:16.978Z,67.70
2023-02-18T00:40:54.142Z,67.70
2023-02-18T00:42:31.745Z,67.80
2023-02-18T00:44:15.334Z,67.90
2023-02-18T00:45:55.212Z,67.90
2023-02-18T00:47:32.558Z,67.90
2023-02-18T00:49:11.940Z,67.90
2023-02-18T00:50:52.282Z,68.40
2023-02-18T00:52:35.083Z,68.00
2023-02-18T00:54:15.294Z,68.00
2023-02-18T00:55:52.990Z,68.10
2023-02-18T00:57:33.063Z,68.00
2023-02-18T00:59:11.366Z,68.00
2023-02-18T01:00:48.897Z,68.00
2023-02-18T01:02:35.332Z,68.10
2023-02-18T01:04:13.421Z,68.10
2023-02-18T01:05:51.772Z,68.10
2023-02-18T01:07:29.193Z,68.20
2023-02-18T01:09:09.303Z,68.20
2023-02-18T01:10:47.901Z,68.20
2023-02-18T01:12:25.546Z,68.30
2023-02-18T01:14:08.022Z,68.40
2023-02-18T01:15:47.738Z,68.40
2023-02-18T01:17:26.976Z,68.50
2023-02-18T01:19:07.222Z,68.40
2023-02-18T01:20:45.608Z,68.40
2023-02-18T01:22:24.496Z,68.40
2023-02-18T01:24:01.822Z,68.40
2023-02-18T01:25:41.489Z,68.50
2023-02-18T01:27:21.795Z,68.60
2023-02-18T01:29:03.194Z,68.50
2023-02-18T01:30:40.185Z,68.50
2023-02-18T01:32:18.159Z,68.50
2023-02-18T01:33:55.308Z,68.40
2023-02-18T01:35:32.056Z,68.50
2023-02-18T01:37:09.147Z,68.60
2023-02-18T01:38:46.317Z,68.70
2023-02-18T01:40:26.068Z,68.70
2023-02-18T01:42:08.235Z,68.80
2023-02-18T01:43:45.735Z,68.80
2023-02-18T01:45:53.605Z,68.80
2023-02-18T01:47:31.606Z,69.00
2023-02-18T01:49:11.317Z,68.80
2023-02-18T01:50:51.332Z,68.80
2023-02-18T01:52:33.917Z,68.80
2023-02-18T01:54:17.133Z,68.80
2023-02-18T01:55:54.098Z,68.80
2023-02-18T01:57:38.424Z,68.80
2023-02-18T01:59:25.910Z,68.80
2023-02-18T02:01:00.531Z,68.80
2023-02-18T02:02:51.322Z,68.70
2023-02-18T02:04:25.959Z,68.90
2023-02-18T02:06:15.680Z,68.90
2023-02-18T02:08:02.597Z,68.80
2023-02-18T02:09:40.184Z,68.80
2023-02-18T02:11:34.133Z,68.90
2023-02-18T02:13:24.901Z,69.10
2023-02-18T02:15:26.693Z,68.90
2023-02-18T02:17:16.228Z,69.10
2023-02-18T02:19:07.099Z,68.90
2023-02-18T02:21:28.635Z,69.00
2023-02-18T02:24:11.975Z,69.00
2023-02-18T02:26:25.921Z,69.00
2023-02-18T02:28:42.459Z,69.00
2023-02-18T02:31:05.821Z,68.80
2023-02-18T02:33:25.985Z,69.10
2023-02-18T02:35:13.245Z,68.90
2023-02-18T02:37:01.156Z,68.80
2023-02-18T02:38:52.402Z,68.90
2023-02-18T02:40:41.068Z,69.00
2023-02-18T02:42:40.657Z,69.00
2023-02-18T02:44:27.066Z,69.00
2023-02-18T02:46:12.392Z,69.00
2023-02-18T02:47:59.244Z,69.80
2023-02-18T02:49:51.109Z,69.00
2023-02-18T02:51:35.479Z,69.10
2023-02-18T02:53:25.865Z,69.00
2023-02-18T02:55:07.555Z,69.20
2023-02-18T02:56:45.810Z,69.00
2023-02-18T02:58:25.862Z,69.00
2023-02-18T03:00:14.459Z,69.20
2023-02-18T03:02:18.451Z,69.30
2023-02-18T03:04:34.688Z,69.20
2023-02-18T03:06:51.044Z,69.40
2023-02-18T03:08:47.456Z,69.30
2023-02-18T03:10:49.123Z,69.40
2023-02-18T03:12:37.266Z,69.40
2023-02-18T03:14:25.415Z,69.10
2023-02-18T03:16:19.339Z,69.20
2023-02-18T03:18:05.964Z,69.20
2023-02-18T03:19:50.480Z,69.20
2023-02-18T03:21:34.333Z,69.20
2023-02-18T03:23:22.038Z,69.20
2023-02-18T03:25:03.063Z,69.30
2023-02-18T03:26:55.345Z,69.30
2023-02-18T03:28:41.373Z,69.20
2023-02-18T03:30:27.302Z,69.20
2023-02-18T03:32:11.270Z,69.30
2023-02-18T03:33:57.434Z,69.20
2023-02-18T03:35:35.370Z,69.40
2023-02-18T03:37:18.590Z,69.30
2023-02-18T03:39:06.865Z,69.30
2023-02-18T03:40:44.392Z,69.30
2023-02-18T03:42:20.761Z,69.30
2023-02-18T03:44:05.353Z,69.30
2023-02-18T03:45:46.211Z,69.30
2023-02-18T03:47:24.986Z,69.20
2023-02-18T03:49:02.869Z,69.20
2023-02-18T03:50:40.367Z,69.40
2023-02-18T03:52:17.762Z,69.30
2023-02-18T03:53:55.262Z,69.50
2023-02-18T03:55:37.819Z,69.50
2023-02-18T03:57:15.399Z,69.50
2023-02-18T03:58:56.336Z,69.50
2023-02-18T04:00:32.041Z,69.50
2023-02-18T04:02:09.634Z,69.50
2023-02-18T04:03:47.361Z,69.50
2023-02-18T04:05:24.612Z,69.50
2023-02-18T04:07:02.488Z,69.50
2023-02-18T04:08:40.345Z,69.50
2023-02-18T04:10:17.269Z,69.60
2023-02-18T04:11:55.960Z,69.60
2023-02-18T04:13:33.767Z,69.70
2023-02-18T04:15:10.664Z,69.70
2023-02-18T04:16:48.198Z,69.80
2023-02-18T04:18:26.215Z,69.90
2023-02-18T04:20:07.453Z,69.90
2023-02-18T04:21:45.928Z,69.90
2023-02-18T04:23:23.144Z,70.00
2023-02-18T04:25:03.457Z,70.00
2023-02-18T04:26:47.806Z,70.00
2023-02-18T04:28:30.462Z,70.00
2023-02-18T04:30:09.037Z,70.00
2023-02-18T04:31:46.038Z,70.00
2023-02-18T04:33:24.062Z,70.00
2023-02-18T04:35:01.387Z,70.00
2023-02-18T04:36:38.863Z,70.10
2023-02-18T04:38:16.742Z,70.10
2023-02-18T04:39:54.435Z,70.10
2023-02-18T04:41:31.783Z,70.20
2023-02-18T04:43:09.479Z,70.10
2023-02-18T04:44:48.380Z,70.20
2023-02-18T04:46:26.224Z,70.20
2023-02-18T04:48:03.742Z,70.20
2023-02-18T04:49:43.746Z,70.10
2023-02-18T04:51:21.319Z,70.30
2023-02-18T04:52:59.285Z,70.30
2023-02-18T04:54:36.307Z,70.30
2023-02-18T04:56:13.941Z,70.20
2023-02-18T04:57:51.213Z,70.20
2023-02-18T04:59:29.327Z,70.20
2023-02-18T05:01:08.247Z,70.20
2023-02-18T05:02:46.390Z,70.20
2023-02-18T05:04:23.935Z,70.10
2023-02-18T05:06:01.983Z,70.10
2023-02-18T05:07:41.235Z,70.00
2023-02-18T05:09:18.936Z,70.00
2023-02-18T05:10:56.487Z,70.00
2023-02-18T05:12:36.727Z,70.00
2023-02-18T05:14:14.161Z,70.00
2023-02-18T05:15:51.538Z,70.00
2023-02-18T05:17:30.370Z,70.10
2023-02-18T05:19:09.259Z,70.00
2023-02-18T05:20:47.429Z,69.90
2023-02-18T05:22:28.655Z,69.90
2023-02-18T05:24:06.158Z,70.00
2023-02-18T05:25:44.089Z,69.80
2023-02-18T05:27:22.254Z,69.80
2023-02-18T05:28:59.904Z,69.70
2023-02-18T05:30:42.529Z,69.80
2023-02-18T05:32:20.548Z,69.80
2023-02-18T05:34:05.502Z,69.70
2023-02-18T05:35:43.545Z,69.90
2023-02-18T05:37:21.076Z,69.50
2023-02-18T05:38:58.070Z,69.50
2023-02-18T05:40:35.386Z,69.50
2023-02-18T05:42:13.274Z,69.50
2023-02-18T05:44:06.602Z,69.50
2023-02-18T05:45:44.352Z,69.50
2023-02-18T05:47:22.679Z,69.50
2023-02-18T05:49:02.058Z,69.50
2023-02-18T05:50:39.670Z,69.50
2023-02-18T05:52:17.480Z,69.50
2023-02-18T05:53:55.398Z,69.50
2023-02-18T05:55:32.909Z,69.60
2023-02-18T05:57:11.067Z,69.50
2023-02-18T05:58:49.942Z,69.60
2023-02-18T06:00:27.007Z,69.60
2023-02-18T06:02:04.723Z,69.50
2023-02-18T06:03:41.709Z,69.50
2023-02-18T06:05:24.171Z,69.60
2023-02-18T06:07:02.005Z,69.60
2023-02-18T06:08:39.647Z,69.80
2023-02-18T06:10:18.924Z,69.80
2023-02-18T06:11:55.040Z,69.70
2023-02-18T06:13:32.128Z,69.70
2023-02-18T06:15:10.980Z,69.90
2023-02-18T06:16:48.542Z,69.80
2023-02-18T06:18:26.006Z,69.80
2023-02-18T06:20:03.758Z,69.90
2023-02-18T06:21:45.964Z,69.90
2023-02-18T06:23:25.193Z,69.70
2023-02-18T06:25:03.075Z,69.90
2023-02-18T06:26:40.591Z,69.80
2023-02-18T06:28:18.944Z,69.80
2023-02-18T06:29:58.662Z,69.80
2023-02-18T06:31:36.067Z,69.70
2023-02-18T06:33:13.405Z,69.80
2023-02-18T06:34:50.739Z,69.80
2023-02-18T06:36:27.901Z,69.80
2023-02-18T06:38:07.609Z,69.80
2023-02-18T06:39:44.909Z,69.80
2023-02-18T06:41:22.552Z,69.80
2023-02-18T06:42:58.558Z,69.80
2023-02-18T06:44:42.174Z,69.80
2023-02-18T06:46:19.775Z,69.60
2023-02-18T06:47:57.561Z,69.80
2023-02-18T06:49:35.019Z,69.90
2023-02-18T06:51:12.881Z,69.90
2023-02-18T06:52:50.524Z,69.90
2023-02-18T06:54:30.529Z,69.90
2023-02-18T06:56:11.361Z,69.90
2023-02-18T06:57:49.231Z,70.10
2023-02-18T06:59:26.504Z,70.00
2023-02-18T07:01:04.325Z,70.00
2023-02-18T07:02:41.908Z,70.10
2023-02-18T07:04:19.344Z,70.00
2023-02-18T07:05:56.648Z,69.90
2023-02-18T07:07:34.302Z,70.00
2023-02-18T07:09:11.834Z,70.00
2023-02-18T07:10:51.117Z,69.90
2023-02-18T07:12:28.482Z,70.10
2023-02-18T07:14:08.288Z,70.00
2023-02-18T07:15:45.417Z,69.90
2023-02-18T07:17:22.985Z,69.90
2023-02-18T07:18:59.994Z,69.80
2023-02-18T07:20:41.120Z,69.90
2023-02-18T07:22:18.030Z,69.80
2023-02-18T07:23:55.102Z,69.90
2023-02-18T07:25:34.072Z,69.80
2023-02-18T07:27:16.170Z,69.80
2023-02-18T07:28:54.200Z,69.80
2023-02-18T07:30:31.592Z,69.80
2023-02-18T07:32:09.540Z,69.90
2023-02-18T07:33:46.715Z,69.90
2023-02-18T07:35:24.396Z,69.70
2023-02-18T07:37:02.816Z,69.70
2023-02-18T07:38:41.288Z,69.70
2023-02-18T07:40:22.076Z,69.70
2023-02-18T07:41:59.678Z,69.80
2023-02-18T07:43:41.895Z,69.80
2023-02-18T07:45:22.186Z,69.80
2023-02-18T07:46:59.011Z,69.70
2023-02-18T07:48:36.274Z,70.00
2023-02-18T07:50:14.704Z,69.70
2023-02-18T07:51:52.869Z,69.70
2023-02-18T07:53:30.232Z,69.60
2023-02-18T07:55:07.628Z,69.60
2023-02-18T07:56:45.667Z,69.60
2023-02-18T07:58:25.057Z,69.70
2023-02-18T08:00:03.822Z,69.80
2023-02-18T08:01:49.931Z,69.70
2023-02-18T08:03:30.571Z,69.80
2023-02-18T08:05:13.502Z,69.70
2023-02-18T08:06:58.126Z,69.70
2023-02-18T08:08:39.026Z,69.60
2023-02-18T08:10:16.449Z,69.50
2023-02-18T08:11:53.884Z,69.60
2023-02-18T08:13:35.150Z,69.50
2023-02-18T08:15:15.354Z,69.50
2023-02-18T08:16:56.006Z,70.40
2023-02-18T08:18:35.815Z,69.50
2023-02-18T08:20:16.444Z,69.40
2023-02-18T08:21:55.328Z,69.40
2023-02-18T08:23:31.550Z,69.30
2023-02-18T08:25:23.981Z,69.20
2023-02-18T08:27:06.247Z,69.20
2023-02-18T08:28:44.255Z,69.10
2023-02-18T08:30:26.462Z,69.10
2023-02-18T08:32:03.619Z,69.30
2023-02-18T08:33:43.772Z,69.10
2023-02-18T08:35:23.802Z,69.10
2023-02-18T08:37:05.588Z,69.10
2023-02-18T08:38:43.227Z,69.10
2023-02-18T08:40:21.396Z,69.00
2023-02-18T08:42:03.441Z,68.90
2023-02-18T08:43:41.847Z,69.60
2023-02-18T08:45:20.251Z,68.50
2023-02-18T08:46:57.480Z,68.40
2023-02-18T08:48:35.551Z,68.30
2023-02-18T08:50:14.067Z,68.40
2023-02-18T08:51:51.572Z,68.50
2023-02-18T08:53:28.638Z,68.20
2023-02-18T08:55:09.142Z,68.20
2023-02-18T08:56:46.945Z,68.10
2023-02-18T08:58:26.096Z,68.20
2023-02-18T09:00:04.750Z,68.20
2023-02-18T09:01:43.916Z,68.10
2023-02-18T09:03:21.448Z,68.20
2023-02-18T09:04:58.550Z,69.10
2023-02-18T09:06:39.542Z,68.30
2023-02-18T09:08:17.077Z,68.20
2023-02-18T09:09:56.775Z,68.00
2023-02-18T09:11:34.254Z,68.00
2023-02-18T09:13:12.129Z,67.90
2023-02-18T09:14:51.461Z,67.90
2023-02-18T09:16:32.526Z,67.80
2023-02-18T09:18:11.106Z,67.80
2023-02-18T09:19:49.603Z,68.00
2023-02-18T09:21:28.677Z,68.00
2023-02-18T09:23:09.811Z,68.10
2023-02-18T09:24:47.746Z,68.10
2023-02-18T09:26:27.181Z,68.10
2023-02-18T09:28:05.290Z,68.20
2023-02-18T09:29:45.088Z,68.30
2023-02-18T09:31:25.441Z,68.20
2023-02-18T09:33:03.225Z,68.20
2023-02-18T09:34:42.845Z,68.30
2023-02-18T09:36:21.269Z,68.30
2023-02-18T09:38:01.571Z,68.30
2023-02-18T09:39:39.632Z,68.30
2023-02-18T09:41:30.310Z,68.40
2023-02-18T09:43:20.200Z,68.30
2023-02-18T09:45:04.163Z,68.20
2023-02-18T09:46:53.380Z,68.10
2023-02-18T09:48:33.705Z,67.90
2023-02-18T09:50:24.418Z,67.90
2023-02-18T09:52:08.322Z,67.80
2023-02-18T09:53:47.621Z,67.60
2023-02-18T09:55:30.655Z,67.50
2023-02-18T09:57:18.963Z,67.60
2023-02-18T09:58:58.235Z,67.30
2023-02-18T10:00:41.580Z,67.30
2023-02-18T10:02:21.321Z,67.20
2023-02-18T10:04:03.828Z,67.30
2023-02-18T10:05:54.741Z,67.30
2023-02-18T10:07:37.334Z,67.30
2023-02-18T10:09:34.219Z,67.30
2023-02-18T10:11:18.833Z,67.40
2023-02-18T10:12:58.297Z,67.30
2023-02-18T10:14:36.673Z,67.30
2023-02-18T10:16:20.905Z,67.30
2023-02-18T10:18:03.010Z,67.20
2023-02-18T10:19:44.229Z,67.20
2023-02-18T10:21:27.529Z,67.30
2023-02-18T10:23:07.021Z,68.10
2023-02-18T10:24:51.072Z,67.30
2023-02-18T10:26:30.302Z,67.20
2023-02-18T10:28:09.377Z,67.10
2023-02-18T10:29:46.976Z,67.10
2023-02-18T10:31:31.697Z,67.20
2023-02-18T10:33:38.567Z,67.40
2023-02-18T10:35:27.421Z,67.50
2023-02-18T10:37:24.125Z,67.60
2023-02-18T10:39:37.578Z,67.70
2023-02-18T10:41:31.948Z,67.80
2023-02-18T10:43:23.893Z,68.00
2023-02-18T10:45:18.831Z,68.00
2023-02-18T10:47:12.716Z,68.10
2023-02-18T10:49:26.767Z,68.30
2023-02-18T10:51:19.797Z,68.50
2023-02-18T10:53:07.789Z,68.60
2023-02-18T10:55:05.368Z,68.40
2023-02-18T10:56:48.804Z,68.50
2023-02-18T10:58:35.792Z,68.30
2023-02-18T11:00:24.984Z,68.50
2023-02-18T11:02:05.184Z,68.50
2023-02-18T11:03:50.012Z,68.60
2023-02-18T11:05:30.573Z,68.80
2023-02-18T11:07:18.094Z,68.90
2023-02-18T11:08:59.757Z,69.30
2023-02-18T11:10:47.165Z,69.30
2023-02-18T11:12:29.914Z,69.30
2023-02-18T11:14:16.599Z,69.30
2023-02-18T11:16:05.143Z,69.40
2023-02-18T11:17:44.499Z,69.60
2023-02-18T11:19:40.797Z,69.60
2023-02-18T11:21:32.612Z,69.90
2023-02-18T11:23:26.458Z,69.60
2023-02-18T11:25:22.955Z,69.60
2023-02-18T11:27:01.602Z,69.50
2023-02-18T11:28:48.328Z,69.60
2023-02-18T11:30:30.566Z,69.60
2023-02-18T11:32:14.427Z,69.40
2023-02-18T11:34:00.318Z,69.40
2023-02-18T11:35:39.336Z,69.50
2023-02-18T11:37:24.616Z,69.60
2023-02-18T11:39:08.549Z,69.60
2023-02-18T11:41:03.890Z,69.60
2023-02-18T11:42:43.783Z,69.60
2023-02-18T11:44:34.589Z,69.70
2023-02-18T11:46:19.908Z,69.80
2023-02-18T11:48:10.272Z,70.00
2023-02-18T11:50:03.585Z,70.00
2023-02-18T11:51:45.347Z,70.00
2023-02-18T11:53:34.415Z,70.10
2023-02-18T11:55:22.296Z,70.20
2023-02-18T11:57:06.266Z,70.40
2023-02-18T11:58:51.602Z,70.20
2023-02-18T12:00:43.438Z,70.60
2023-02-18T12:02:37.467Z,70.30
2023-02-18T12:04:19.943Z,71.20
2023-02-18T12:06:02.122Z,70.50
2023-02-18T12:07:49.276Z,70.40
2023-02-18T12:09:35.060Z,70.50
2023-02-18T12:11:21.500Z,70.10
2023-02-18T12:13:08.642Z,70.10
2023-02-18T12:14:47.554Z,70.00
2023-02-18T12:16:41.141Z,69.80
2023-02-18T12:18:47.539Z,69.80
2023-02-18T12:21:08.362Z,70.20
2023-02-18T12:22:48.807Z,70.30
2023-02-18T12:24:52.096Z,70.10
2023-02-18T12:26:42.963Z,70.10
2023-02-18T12:28:56.019Z,69.90
2023-02-18T12:31:14.089Z,70.00
2023-02-18T12:33:02.985Z,69.90
2023-02-18T12:35:00.189Z,70.30
2023-02-18T12:37:03.422Z,70.00
2023-02-18T12:39:20.470Z,71.00
2023-02-18T12:41:34.568Z,70.10
2023-02-18T12:43:25.366Z,70.20
2023-02-18T12:45:31.027Z,70.10
2023-02-18T12:47:55.953Z,70.20
2023-02-18T12:50:12.544Z,70.20
2023-02-18T12:52:24.744Z,70.00
2023-02-18T12:54:41.109Z,70.00
2023-02-18T12:56:57.938Z,70.10
2023-02-18T12:58:59.062Z,70.10
2023-02-18T13:01:14.693Z,70.00
2023-02-18T13:03:49.130Z,70.00
2023-02-18T13:05:41.132Z,70.10
2023-02-18T13:07:46.761Z,70.10
2023-02-18T13:09:45.089Z,70.00
2023-02-18T13:11:39.515Z,70.10
2023-02-18T13:13:29.515Z,70.20
2023-02-18T13:15:23.367Z,70.10
2023-02-18T13:17:10.870Z,70.10
2023-02-18T13:18:59.976Z,70.10
2023-02-18T13:20:46.713Z,70.10
2023-02-18T13:22:30.170Z,70.10
2023-02-18T13:24:14.496Z,70.10
2023-02-18T13:26:01.116Z,70.20
2023-02-18T13:27:44.172Z,70.10
2023-02-18T13:29:29.283Z,70.40
2023-02-18T13:31:42.259Z,70.20
2023-02-18T13:33:35.035Z,70.80
2023-02-18T13:35:24.462Z,70.00
2023-02-18T13:37:14.562Z,69.90
2023-02-18T13:39:18.447Z,70.00
2023-02-18T13:40:58.599Z,70.00
2023-02-18T13:42:41.454Z,70.00
2023-02-18T13:45:13.826Z,70.10
2023-02-18T13:46:57.785Z,70.20
2023-02-18T13:48:49.812Z,70.00
2023-02-18T13:50:46.028Z,70.10
2023-02-18T13:52:30.093Z,70.10
2023-02-18T13:54:32.758Z,70.00
2023-02-18T13:56:26.862Z,70.10
2023-02-18T13:58:10.048Z,70.10
2023-02-18T13:59:54.650Z,71.00
2023-02-18T14:01:53.620Z,70.10
2023-02-18T14:03:55.510Z,70.30
2023-02-18T14:05:45.483Z,70.30
2023-02-18T14:07:53.715Z,70.20
2023-02-18T14:09:49.050Z,70.20
2023-02-18T14:11:53.392Z,70.20
2023-02-18T14:13:46.708Z,70.20
2023-02-18T14:16:01.347Z,70.20
2023-02-18T14:17:51.091Z,70.40
2023-02-18T14:19:38.313Z,70.30
2023-02-18T14:21:47.536Z,70.20
2023-02-18T14:23:48.370Z,70.30
2023-02-18T14:25:44.213Z,70.20
2023-02-18T14:27:23.523Z,70.10
2023-02-18T14:29:14.350Z,70.10
2023-02-18T14:30:52.501Z,70.10
2023-02-18T14:32:32.439Z,70.10
2023-02-18T14:35:01.582Z,70.10
2023-02-18T14:36:53.775Z,70.30
2023-02-18T14:38:46.117Z,70.30
2023-02-18T14:40:59.221Z,70.20
2023-02-18T14:42:52.485Z,70.10
2023-02-18T14:45:00.675Z,70.00
2023-02-18T14:46:55.503Z,70.10
2023-02-18T14:49:06.381Z,70.00
2023-02-18T14:50:50.960Z,70.10
2023-02-18T14:52:43.623Z,70.00
2023-02-18T14:54:26.814Z,70.00
2023-02-18T14:56:25.930Z,70.10
2023-02-18T14:58:11.132Z,70.50
2023-02-18T14:59:52.130Z,70.50
2023-02-18T15:01:35.944Z,70.40
2023-02-18T15:03:26.530Z,70.50
2023-02-18T15:05:26.741Z,70.40
2023-02-18T15:07:08.361Z,70.40
2023-02-18T15:08:46.150Z,70.40
2023-02-18T15:10:41.694Z,70.40
2023-02-18T15:12:27.967Z,70.40
2023-02-18T15:14:11.662Z,70.40
2023-02-18T15:15:59.139Z,71.20
2023-02-18T15:17:38.619Z,70.40
2023-02-18T15:19:26.356Z,70.40
2023-02-18T15:21:12.678Z,70.50
2023-02-18T15:22:51.514Z,70.50
2023-02-18T15:24:38.380Z,70.40
2023-02-18T15:26:18.579Z,70.60
2023-02-18T15:28:01.228Z,70.50
2023-02-18T15:29:43.314Z,70.60
2023-02-18T15:31:30.600Z,70.50
2023-02-18T15:33:19.871Z,70.50
2023-02-18T15:35:20.953Z,70.30
2023-02-18T15:37:01.708Z,70.30
2023-02-18T15:38:44.583Z,70.30
2023-02-18T15:40:23.005Z,70.20
2023-02-18T15:42:05.241Z,70.40
2023-02-18T15:43:43.700Z,70.30
2023-02-18T15:45:26.459Z,70.50
2023-02-18T15:47:08.394Z,70.50
2023-02-18T15:48:52.377Z,70.50
2023-02-18T15:50:35.392Z,70.60
2023-02-18T15:52:12.189Z,70.60
2023-02-18T15:53:57.134Z,70.50
2023-02-18T15:55:39.092Z,70.40
2023-02-18T15:57:20.080Z,70.30
2023-02-18T15:59:21.097Z,70.30
2023-02-18T16:01:06.791Z,70.20
2023-02-18T16:02:55.502Z,70.20
2023-02-18T16:04:34.615Z,70.40
2023-02-18T16:06:20.331Z,70.00
2023-02-18T16:07:59.400Z,70.10
2023-02-18T16:09:36.709Z,70.30
2023-02-18T16:11:13.488Z,70.10
2023-02-18T16:12:52.762Z,70.10
2023-02-18T16:14:36.943Z,70.10
2023-02-18T16:16:30.370Z,70.10
2023-02-18T16:18:10.656Z,70.30
2023-02-18T16:20:03.941Z,70.20
2023-02-18T16:21:48.135Z,70.30
2023-02-18T16:23:40.538Z,70.00
2023-02-18T16:25:33.302Z,70.10
2023-02-18T16:27:19.726Z,70.00
2023-02-18T16:29:00.090Z,69.90
2023-02-18T16:30:37.548Z,69.90
2023-02-18T16:32:11.105Z,69.80
2023-02-18T16:33:44.542Z,69.90
2023-02-18T16:35:18.404Z,69.90
2023-02-18T16:37:09.518Z,69.90
2023-02-18T16:38:43.698Z,69.80
2023-02-18T16:40:30.123Z,69.90
2023-02-18T16:42:04.111Z,69.90
2023-02-18T16:43:37.627Z,69.90
2023-02-18T16:45:13.734Z,69.70
2023-02-18T16:46:46.973Z,69.70
2023-02-18T16:48:27.840Z,69.70
2023-02-18T16:50:01.298Z,69.70
2023-02-18T16:51:36.299Z,69.70
2023-02-18T16:53:14.826Z,69.50
2023-02-18T16:54:50.138Z,69.60
2023-02-18T16:56:29.610Z,69.60
2023-02-18T16:58:02.923Z,69.70
2023-02-18T16:59:36.140Z,69.70
2023-02-18T17:01:24.139Z,69.70
2023-02-18T17:03:01.462Z,69.70
2023-02-18T17:04:40.525Z,69.80
2023-02-18T17:06:14.071Z,69.70
2023-02-18T17:07:47.526Z,69.70
2023-02-18T17:09:23.563Z,69.70
2023-02-18T17:10:59.283Z,69.80
2023-02-18T17:12:33.964Z,69.80
2023-02-18T17:14:07.228Z,69.80
2023-02-18T17:15:46.411Z,69.90
2023-02-18T17:17:22.881Z,70.00
2023-02-18T17:18:56.377Z,70.00
2023-02-18T17:20:33.160Z,69.80
2023-02-18T17:22:06.944Z,69.90
2023-02-18T17:23:41.414Z,69.90
2023-02-18T17:25:22.074Z,70.00
2023-02-18T17:26:55.506Z,70.10
2023-02-18T17:28:29.995Z,70.00
2023-02-18T17:30:03.393Z,69.90
2023-02-18T17:31:47.623Z,70.00
2023-02-18T17:33:24.109Z,69.80
2023-02-18T17:35:07.100Z,69.90
2023-02-18T17:36:46.225Z,69.90
2023-02-18T17:38:23.461Z,70.00
2023-02-18T17:40:01.685Z,69.90
2023-02-18T17:41:39.529Z,69.90
2023-02-18T17:43:18.341Z,69.90
2023-02-18T17:44:56.300Z,69.90
2023-02-18T17:46:32.379Z,69.90
2023-02-18T17:48:10.710Z,69.90
2023-02-18T17:49:50.905Z,69.90
2023-02-18T17:51:32.361Z,69.90
2023-02-18T17:53:09.105Z,69.90
2023-02-18T17:54:49.957Z,70.10
2023-02-18T17:56:27.257Z,69.90
2023-02-18T17:58:05.466Z,69.90
2023-02-18T17:59:42.869Z,69.80
2023-02-18T18:01:25.594Z,69.80
2023-02-18T18:03:04.043Z,69.80
2023-02-18T18:04:42.081Z,69.80
2023-02-18T18:06:22.562Z,69.90
2023-02-18T18:08:00.674Z,70.00
2023-02-18T18:09:38.200Z,69.90
2023-02-18T18:11:20.906Z,70.00
2023-02-18T18:13:00.590Z,70.00
2023-02-18T18:14:38.724Z,70.10
2023-02-18T18:16:19.214Z,70.10
2023-02-18T18:18:00.705Z,70.10
2023-02-18T18:19:38.947Z,70.20
2023-02-18T18:21:25.503Z,70.40
2023-02-18T18:23:06.835Z,70.30
2023-02-18T18:24:46.217Z,70.40
2023-02-18T18:26:23.796Z,70.20
2023-02-18T18:28:04.577Z,70.10
2023-02-18T18:29:44.090Z,70.20
2023-02-18T18:31:22.853Z,70.10
2023-02-18T18:33:01.525Z,70.10
2023-02-18T18:34:38.607Z,70.10
2023-02-18T18:36:17.238Z,70.10
2023-02-18T18:38:04.877Z,70.10
2023-02-18T18:39:43.928Z,70.10
2023-02-18T18:41:25.019Z,70.00
2023-02-18T18:43:07.567Z,70.10
2023-02-18T18:44:54.300Z,70.00
2023-02-18T18:46:31.155Z,69.90
2023-02-18T18:48:13.575Z,69.80
2023-02-18T18:49:52.959Z,69.90
2023-02-18T18:51:40.484Z,70.00
2023-02-18T18:53:26.022Z,70.00
2023-02-18T18:55:03.760Z,70.10
2023-02-18T18:56:46.448Z,70.00
2023-02-18T18:58:27.085Z,70.00
2023-02-18T19:00:02.534Z,70.00
2023-02-18T19:01:40.215Z,69.80
2023-02-18T19:03:18.449Z,69.90
2023-02-18T19:04:58.360Z,69.90
2023-02-18T19:06:38.256Z,70.00
2023-02-18T19:08:18.951Z,69.90
2023-02-18T19:09:56.282Z,69.80
2023-02-18T19:11:33.593Z,70.10
2023-02-18T19:13:18.790Z,69.90
2023-02-18T19:14:58.037Z,69.90
2023-02-18T19:16:43.364Z,69.90
2023-02-18T19:18:24.335Z,69.80
2023-02-18T19:20:02.044Z,70.00
2023-02-18T19:21:39.885Z,69.90
2023-02-18T19:23:19.041Z,69.90
2023-02-18T19:24:57.018Z,69.90
2023-02-18T19:26:33.471Z,69.80
2023-02-18T19:28:09.658Z,69.90
2023-02-18T19:29:46.717Z,70.00
2023-02-18T19:31:24.872Z,70.00
2023-02-18T19:33:06.847Z,69.90
2023-02-18T19:34:45.508Z,70.00
2023-02-18T19:36:20.686Z,70.10
2023-02-18T19:38:00.183Z,70.10
2023-02-18T19:39:38.875Z,70.10
2023-02-18T19:41:21.385Z,70.10
2023-02-18T19:43:21.078Z,70.00
2023-02-18T19:44:55.555Z,69.90
2023-02-18T19:46:32.969Z,69.80
2023-02-18T19:48:10.473Z,69.90
2023-02-18T19:49:48.962Z,69.90
2023-02-18T19:51:26.754Z,69.90
2023-02-18T19:53:06.979Z,69.90
2023-02-18T19:54:44.422Z,70.00
2023-02-18T19:56:21.703Z,70.00
2023-02-18T19:57:58.926Z,70.10
2023-02-18T19:59:37.077Z,70.10
2023-02-18T20:01:18.952Z,70.00
2023-02-18T20:02:56.276Z,70.10
2023-02-18T20:04:36.798Z,70.10
2023-02-18T20:06:21.650Z,70.10
2023-02-18T20:07:58.932Z,70.10
2023-02-18T20:09:35.569Z,70.00
2023-02-18T20:11:12.961Z,70.00
2023-02-18T20:12:54.778Z,70.00
2023-02-18T20:14:32.764Z,70.00
2023-02-18T20:16:13.614Z,70.00
2023-02-18T20:17:49.325Z,70.10
2023-02-18T20:19:32.093Z,70.10
2023-02-18T20:21:13.528Z,70.10
2023-02-18T20:22:56.761Z,70.30
2023-02-18T20:24:41.199Z,70.00
2023-02-18T20:26:18.445Z,70.20
2023-02-18T20:28:01.436Z,69.90
2023-02-18T20:29:36.986Z,69.80
2023-02-18T20:31:15.995Z,69.90
2023-02-18T20:32:49.974Z,69.90
2023-02-18T20:34:23.571Z,69.90
2023-02-18T20:35:58.377Z,69.80
2023-02-18T20:37:34.978Z,69.90
2023-02-18T20:39:16.489Z,70.30
2023-02-18T20:40:53.899Z,70.00
2023-02-18T20:42:34.555Z,70.10
2023-02-18T20:44:11.987Z,70.10
2023-02-18T20:45:48.546Z,70.20
2023-02-18T20:47:25.424Z,70.20
2023-02-18T20:49:03.037Z,70.30
2023-02-18T20:50:40.787Z,70.30
2023-02-18T20:52:20.624Z,70.30
2023-02-18T20:54:00.745Z,70.30
2023-02-18T20:55:41.782Z,70.20
2023-02-18T20:57:19.119Z,70.30
2023-02-18T20:58:55.977Z,70.20
2023-02-18T21:00:32.918Z,70.30
2023-02-18T21:02:10.076Z,70.20
2023-02-18T21:03:48.771Z,70.20
2023-02-18T21:05:22.523Z,70.20
2023-02-18T21:06:55.699Z,70.30
2023-02-18T21:08:29.653Z,70.30
2023-02-18T21:10:03.981Z,70.50
2023-02-18T21:11:38.379Z,70.40
2023-02-18T21:13:11.505Z,70.40
2023-02-18T21:14:44.635Z,70.40
2023-02-18T21:16:20.015Z,70.40
2023-02-18T21:17:53.169Z,70.40
2023-02-18T21:19:26.446Z,70.40
2023-02-18T21:21:02.300Z,70.40
2023-02-18T21:22:35.431Z,71.00
2023-02-18T21:24:09.231Z,70.40
2023-02-18T21:25:42.409Z,70.40
2023-02-18T21:27:16.796Z,70.40
2023-02-18T21:28:52.341Z,70.50
2023-02-18T21:30:25.737Z,70.50
2023-02-18T21:31:59.002Z,70.50
2023-02-18T21:33:32.615Z,70.40
2023-02-18T21:35:07.103Z,70.30
2023-02-18T21:36:41.198Z,70.50
2023-02-18T21:38:14.272Z,70.50
2023-02-18T21:39:47.296Z,70.40
2023-02-18T21:41:20.883Z,70.40
2023-02-18T21:42:55.334Z,70.50
2023-02-18T21:44:41.239Z,70.40
2023-02-18T21:46:18.529Z,70.40
2023-02-18T21:47:52.039Z,70.30
2023-02-18T21:49:26.330Z,70.30
2023-02-18T21:51:03.460Z,70.40
2023-02-18T21:52:36.632Z,70.50
2023-02-18T21:54:11.867Z,70.60
2023-02-18T21:55:55.314Z,70.60
2023-02-18T21:57:35.779Z,70.60
2023-02-18T21:59:10.254Z,70.90
2023-02-18T22:00:43.562Z,70.60
2023-02-18T22:02:20.053Z,70.70
2023-02-18T22:03:55.696Z,70.70
2023-02-18T22:05:30.518Z,70.80